createdAt,value
2023-03-11T00:00:26.915Z,64.85
2023-03-11T00:02:56.055Z,62.74
2023-03-11T00:05:29.324Z,60.56
2023-03-11T00:07:57.134Z,55.73
2023-03-11T00:10:41.318Z,53.42
2023-03-11T00:13:10.464Z,54.47
2023-03-11T00:15:38.877Z,55.33
2023-03-11T00:18:07.003Z,57.01
2023-03-11T00:20:39.497Z,57.32
2023-03-11T00:23:08.662Z,58.18
2023-03-11T00:25:37.621Z,58.73
2023-03-11T00:28:07.566Z,59.71
2023-03-11T00:30:34.525Z,59.85
2023-03-11T00:33:01.527Z,60.49
2023-03-11T00:35:31.858Z,60.47
2023-03-11T00:38:01.724Z,61.33
2023-03-11T00:40:31.351Z,61.54
2023-03-11T00:42:59.511Z,61.46
2023-03-11T00:45:28.441Z,61.83
2023-03-11T00:47:56.153Z,62.02
2023-03-11T00:50:26.509Z,63.86
2023-03-11T00:52:53.513Z,66.53
2023-03-11T00:55:23.838Z,64.61
2023-03-11T00:58:00.274Z,60.95
2023-03-11T01:00:28.879Z,55.77
2023-03-11T01:02:56.680Z,53.04
2023-03-11T01:05:28.295Z,53.64
2023-03-11T01:07:55.244Z,54.96
2023-03-11T01:10:22.177Z,56.52
2023-03-11T01:12:49.321Z,56.88
2023-03-11T01:15:30.145Z,59.52
2023-03-11T01:17:57.155Z,60.87
2023-03-11T01:20:24.598Z,62.99
2023-03-11T01:22:51.646Z,64.61
2023-03-11T01:25:20.329Z,63.46
2023-03-11T01:27:47.368Z,61.81
2023-03-11T01:30:17.996Z,57.21
2023-03-11T01:32:45.281Z,54.07
2023-03-11T01:35:14.910Z,55.52
2023-03-11T01:37:41.905Z,56.03
2023-03-11T01:40:13.353Z,57.23
2023-03-11T01:42:40.395Z,58.22
2023-03-11T01:45:43.587Z,60.59
2023-03-11T01:48:11.890Z,60.76
2023-03-11T01:50:43.582Z,61.67
2023-03-11T01:53:13.354Z,61.59
2023-03-11T01:55:40.368Z,63.43
2023-03-11T01:58:11.299Z,64.47
2023-03-11T02:00:39.058Z,63.69
2023-03-11T02:03:17.732Z,62.03
2023-03-11T02:05:45.939Z,57.54
2023-03-11T02:08:12.689Z,54.58
2023-03-11T02:10:43.021Z,55.14
2023-03-11T02:13:10.976Z,56.07
2023-03-11T02:15:39.937Z,57.77
2023-03-11T02:18:08.477Z,59.70
2023-03-11T02:20:59.457Z,59.64
2023-03-11T02:23:37.035Z,59.75
2023-03-11T02:26:10.439Z,60.44
2023-03-11T02:28:39.233Z,61.67
2023-03-11T02:31:06.221Z,63.77
2023-03-11T02:33:36.841Z,64.58
2023-03-11T02:36:04.911Z,63.92
2023-03-11T02:38:31.924Z,62.12
2023-03-11T02:41:02.967Z,57.95
2023-03-11T02:43:41.480Z,55.36
2023-03-11T02:46:11.819Z,55.67
2023-03-11T02:48:39.457Z,56.81
2023-03-11T02:51:06.294Z,57.94
2023-03-11T02:53:38.163Z,59.24
2023-03-11T02:56:05.290Z,60.46
2023-03-11T02:58:32.127Z,61.63
2023-03-11T03:00:58.974Z,63.89
2023-03-11T03:03:25.806Z,65.54
2023-03-11T03:05:52.650Z,62.47
2023-03-11T03:08:19.487Z,59.03
2023-03-11T03:10:46.640Z,56.45
2023-03-11T03:13:13.693Z,57.24
2023-03-11T03:15:40.730Z,59.15
2023-03-11T03:18:07.665Z,59.93
2023-03-11T03:20:34.419Z,61.35
2023-03-11T03:23:01.661Z,63.71
2023-03-11T03:25:28.715Z,66.19
2023-03-11T03:27:55.550Z,63.42
2023-03-11T03:30:22.393Z,62.62
2023-03-11T03:32:49.302Z,57.87
2023-03-11T03:35:16.271Z,56.36
2023-03-11T03:37:43.112Z,57.46
2023-03-11T03:40:10.773Z,58.73
2023-03-11T03:42:38.486Z,59.54
2023-03-11T03:45:08.172Z,61.36
2023-03-11T03:47:36.012Z,64.65
2023-03-11T03:50:05.851Z,68.19
2023-03-11T03:52:32.610Z,67.55
2023-03-11T03:54:59.350Z,65.40
2023-03-11T03:57:26.023Z,62.86
2023-03-11T03:59:52.701Z,59.77
2023-03-11T04:02:19.547Z,57.58
2023-03-11T04:04:47.399Z,57.72
2023-03-11T04:07:14.109Z,58.83
2023-03-11T04:09:42.754Z,62.59
2023-03-11T04:12:15.456Z,65.21
2023-03-11T04:14:42.241Z,64.87
2023-03-11T04:17:11.841Z,63.33
2023-03-11T04:19:39.277Z,62.86
2023-03-11T04:22:06.310Z,61.94
2023-03-11T04:24:33.036Z,61.42
2023-03-11T04:27:00.121Z,60.72
2023-03-11T04:29:26.893Z,59.07
2023-03-11T04:31:53.706Z,56.92
2023-03-11T04:34:20.824Z,58.00
2023-03-11T04:36:47.650Z,59.33
2023-03-11T04:39:15.600Z,61.84
2023-03-11T04:41:42.377Z,65.43
2023-03-11T04:44:09.082Z,65.83
2023-03-11T04:46:35.958Z,64.78
2023-03-11T04:49:02.693Z,62.81
2023-03-11T04:51:29.497Z,62.52
2023-03-11T04:53:56.225Z,61.31
2023-03-11T04:56:23.291Z,57.76
2023-03-11T04:58:49.996Z,56.19
2023-03-11T05:01:16.740Z,57.11
2023-03-11T05:03:43.421Z,59.44
2023-03-11T05:06:10.759Z,61.31
2023-03-11T05:08:37.638Z,63.92
2023-03-11T05:11:05.083Z,66.62
2023-03-11T05:13:32.719Z,65.92
2023-03-11T05:16:00.149Z,63.82
2023-03-11T05:18:27.420Z,61.97
2023-03-11T05:20:54.887Z,59.94
2023-03-11T05:23:22.442Z,57.34
2023-03-11T05:25:49.176Z,55.25
2023-03-11T05:28:16.008Z,55.93
2023-03-11T05:30:42.646Z,56.91
2023-03-11T05:33:09.597Z,58.55
2023-03-11T05:35:36.777Z,59.67
2023-03-11T05:38:04.880Z,61.52
2023-03-11T05:40:41.416Z,66.29
2023-03-11T05:43:08.474Z,67.62
2023-03-11T05:45:35.467Z,64.37
2023-03-11T05:48:02.198Z,63.26
2023-03-11T05:50:29.048Z,60.82
2023-03-11T05:52:56.561Z,60.40
2023-03-11T05:55:23.519Z,60.15
2023-03-11T05:57:52.792Z,56.90
2023-03-11T06:00:20.726Z,53.94
2023-03-11T06:02:47.995Z,55.27
2023-03-11T06:05:15.095Z,58.32
2023-03-11T06:07:42.253Z,58.71
2023-03-11T06:10:10.393Z,60.52
2023-03-11T06:12:38.871Z,61.61
2023-03-11T06:15:09.358Z,66.00
2023-03-11T06:17:36.557Z,69.32
2023-03-11T06:20:05.221Z,69.19
2023-03-11T06:22:32.470Z,67.80
2023-03-11T06:24:59.353Z,66.15
2023-03-11T06:27:26.553Z,64.33
2023-03-11T06:29:54.966Z,62.16
2023-03-11T06:32:22.410Z,61.99
2023-03-11T06:34:53.452Z,61.41
2023-03-11T06:37:21.597Z,60.99
2023-03-11T06:39:52.797Z,61.22
2023-03-11T06:42:20.437Z,60.55
2023-03-11T06:44:59.202Z,60.10
2023-03-11T06:47:29.479Z,57.46
2023-03-11T06:50:01.273Z,55.61
2023-03-11T06:52:28.245Z,56.86
2023-03-11T06:54:55.284Z,58.91
2023-03-11T06:57:22.723Z,60.14
2023-03-11T06:59:50.082Z,61.29
2023-03-11T07:02:17.050Z,65.36
2023-03-11T07:04:44.124Z,70.57
2023-03-11T07:07:11.207Z,71.10
2023-03-11T07:09:38.505Z,69.79
2023-03-11T07:12:06.797Z,67.98
2023-03-11T07:14:34.453Z,66.56
2023-03-11T07:17:01.852Z,65.69
2023-03-11T07:19:28.973Z,64.87
2023-03-11T07:21:55.907Z,64.35
2023-03-11T07:24:22.885Z,63.45
2023-03-11T07:26:49.885Z,62.66
2023-03-11T07:29:17.170Z,61.91
2023-03-11T07:31:44.314Z,61.39
2023-03-11T07:34:14.072Z,61.21
2023-03-11T07:36:42.507Z,60.97
2023-03-11T07:39:14.893Z,60.43
2023-03-11T07:41:42.291Z,60.25
2023-03-11T07:44:12.908Z,60.22
2023-03-11T07:46:40.645Z,57.85
2023-03-11T07:49:08.184Z,55.85
2023-03-11T07:51:36.970Z,57.54
2023-03-11T07:54:07.863Z,58.44
2023-03-11T07:56:35.598Z,60.31
2023-03-11T07:59:04.497Z,61.26
2023-03-11T08:01:36.732Z,64.28
2023-03-11T08:04:06.978Z,69.14
2023-03-11T08:06:35.756Z,70.02
2023-03-11T08:09:06.227Z,69.03
2023-03-11T08:11:33.183Z,67.29
2023-03-11T08:14:00.474Z,65.35
2023-03-11T08:16:27.974Z,64.05
2023-03-11T08:18:55.743Z,62.62
2023-03-11T08:21:26.073Z,62.06
2023-03-11T08:23:58.538Z,61.78
2023-03-11T08:26:26.306Z,60.98
2023-03-11T08:28:53.340Z,60.40
2023-03-11T08:31:24.667Z,59.85
2023-03-11T08:33:54.781Z,57.76
2023-03-11T08:36:22.138Z,56.01
2023-03-11T08:38:49.368Z,57.76
2023-03-11T08:41:16.652Z,59.38
2023-03-11T08:43:44.773Z,61.06
2023-03-11T08:46:36.179Z,64.53
2023-03-11T08:49:03.499Z,68.49
2023-03-11T08:51:33.029Z,68.24
2023-03-11T08:54:01.099Z,65.24
2023-03-11T08:56:28.410Z,64.57
2023-03-11T08:58:55.816Z,64.41
2023-03-11T09:01:23.962Z,63.12
2023-03-11T09:03:51.803Z,62.23
2023-03-11T09:06:19.444Z,61.94
2023-03-11T09:08:47.732Z,62.05
2023-03-11T09:11:16.963Z,61.68
2023-03-11T09:13:44.567Z,61.73
2023-03-11T09:16:17.295Z,61.19
2023-03-11T09:18:45.712Z,61.44
2023-03-11T09:21:13.280Z,61.48
2023-03-11T09:23:43.954Z,61.43
2023-03-11T09:26:12.218Z,61.46
2023-03-11T09:28:39.917Z,61.11
2023-03-11T09:31:07.702Z,60.42
2023-03-11T09:33:40.234Z,61.00
2023-03-11T09:36:08.304Z,60.97
2023-03-11T09:38:35.199Z,60.52
2023-03-11T09:41:36.702Z,59.88
2023-03-11T09:44:18.384Z,57.57
2023-03-11T09:47:04.445Z,58.46
2023-03-11T09:50:16.973Z,61.06
2023-03-11T09:52:53.299Z,67.48
2023-03-11T09:55:49.575Z,67.07
2023-03-11T09:58:29.634Z,66.51
2023-03-11T10:00:57.142Z,64.68
2023-03-11T10:03:26.956Z,62.98
2023-03-11T10:06:01.496Z,63.08
2023-03-11T10:08:53.911Z,62.50
2023-03-11T10:11:45.264Z,62.61
2023-03-11T10:14:27.984Z,62.11
2023-03-11T10:17:16.937Z,61.84
2023-03-11T10:20:22.424Z,61.25
2023-03-11T10:23:08.777Z,61.03
2023-03-11T10:25:54.376Z,60.65
2023-03-11T10:28:25.033Z,60.90
2023-03-11T10:31:01.817Z,60.57
2023-03-11T10:34:18.872Z,60.92
2023-03-11T10:36:48.855Z,59.63
2023-03-11T10:39:16.101Z,57.20
2023-03-11T10:41:51.415Z,57.27
2023-03-11T10:44:34.560Z,59.87
2023-03-11T10:47:02.714Z,64.31
2023-03-11T10:49:30.616Z,67.02
2023-03-11T10:51:58.556Z,66.55
2023-03-11T10:54:35.558Z,63.98
2023-03-11T10:57:05.427Z,63.68
2023-03-11T10:59:48.034Z,62.17
2023-03-11T11:02:38.778Z,61.60
2023-03-11T11:05:14.924Z,61.13
2023-03-11T11:07:43.460Z,60.37
2023-03-11T11:10:14.137Z,60.37
2023-03-11T11:13:18.317Z,60.23
2023-03-11T11:15:51.502Z,60.80
2023-03-11T11:18:42.952Z,60.34
2023-03-11T11:21:33.601Z,60.06
2023-03-11T11:24:06.464Z,58.76
2023-03-11T11:26:33.490Z,56.28
2023-03-11T11:29:12.831Z,58.68
2023-03-11T11:31:46.155Z,61.32
2023-03-11T11:34:32.884Z,65.46
2023-03-11T11:37:03.746Z,67.59
2023-03-11T11:39:52.180Z,65.67
2023-03-11T11:42:20.783Z,65.53
2023-03-11T11:44:53.420Z,64.32
2023-03-11T11:47:33.421Z,63.45
2023-03-11T11:50:16.701Z,62.47
2023-03-11T11:52:49.211Z,60.80
2023-03-11T11:55:31.982Z,60.89
2023-03-11T11:57:59.055Z,60.33
2023-03-11T12:00:42.281Z,58.50
2023-03-11T12:03:27.185Z,57.03
2023-03-11T12:06:07.406Z,59.01
2023-03-11T12:08:43.415Z,63.25
2023-03-11T12:11:27.620Z,67.97
2023-03-11T12:14:04.936Z,67.66
2023-03-11T12:16:40.057Z,65.51
2023-03-11T12:19:10.544Z,64.55
2023-03-11T12:22:17.759Z,63.69
2023-03-11T12:25:11.985Z,62.48
2023-03-11T12:27:48.135Z,60.79
2023-03-11T12:30:20.297Z,61.04
2023-03-11T12:32:57.027Z,60.72
2023-03-11T12:35:32.686Z,60.25
2023-03-11T12:38:21.348Z,59.41
2023-03-11T12:40:49.507Z,56.02
2023-03-11T12:43:30.622Z,57.37
2023-03-11T12:46:01.658Z,59.05
2023-03-11T12:48:47.900Z,61.36
2023-03-11T12:51:27.183Z,67.55
2023-03-11T12:53:57.898Z,67.31
2023-03-11T12:56:37.077Z,65.68
2023-03-11T12:59:23.030Z,63.89
2023-03-11T13:02:12.140Z,62.75
2023-03-11T13:04:56.806Z,61.70
2023-03-11T13:07:23.632Z,61.62
2023-03-11T13:10:29.422Z,60.61
2023-03-11T13:12:57.876Z,59.92
2023-03-11T13:15:35.668Z,59.75
2023-03-11T13:18:07.997Z,59.13
2023-03-11T13:20:43.840Z,57.03
2023-03-11T13:23:40.868Z,56.95
2023-03-11T13:26:35.621Z,60.34
2023-03-11T13:29:45.367Z,61.92
2023-03-11T13:32:40.675Z,66.78
2023-03-11T13:35:48.710Z,68.10
2023-03-11T13:38:44.603Z,66.43
2023-03-11T13:41:20.641Z,64.75
2023-03-11T13:43:50.885Z,64.33
2023-03-11T13:46:31.271Z,63.20
2023-03-11T13:49:26.146Z,62.60
2023-03-11T13:51:57.278Z,61.96
2023-03-11T13:54:31.828Z,61.54
2023-03-11T13:57:01.689Z,60.90
2023-03-11T13:59:35.132Z,60.53
2023-03-11T14:02:17.327Z,60.37
2023-03-11T14:04:59.236Z,60.25
2023-03-11T14:07:34.404Z,59.10
2023-03-11T14:10:22.065Z,57.10
2023-03-11T14:12:49.591Z,58.90
2023-03-11T14:15:24.327Z,61.14
2023-03-11T14:17:52.955Z,61.63
2023-03-11T14:20:25.447Z,66.25
2023-03-11T14:22:55.271Z,69.29
2023-03-11T14:25:28.566Z,67.58
2023-03-11T14:28:02.239Z,66.23
2023-03-11T14:30:32.557Z,65.23
2023-03-11T14:33:06.020Z,63.29
2023-03-11T14:35:34.553Z,62.40
2023-03-11T14:38:01.849Z,62.21
2023-03-11T14:40:32.396Z,61.07
2023-03-11T14:43:06.582Z,60.64
2023-03-11T14:45:37.631Z,60.17
2023-03-11T14:48:04.763Z,60.12
2023-03-11T14:50:35.427Z,60.45
2023-03-11T14:53:09.349Z,59.98
2023-03-11T14:55:44.417Z,59.67
2023-03-11T14:58:24.173Z,57.59
2023-03-11T15:00:58.268Z,55.84
2023-03-11T15:03:31.958Z,57.12
2023-03-11T15:06:04.405Z,59.39
2023-03-11T15:08:45.115Z,59.01
2023-03-11T15:11:15.431Z,60.07
2023-03-11T15:13:44.783Z,63.91
2023-03-11T15:16:30.217Z,68.19
2023-03-11T15:19:00.779Z,67.73
2023-03-11T15:21:28.382Z,66.21
2023-03-11T15:24:07.337Z,64.82
2023-03-11T15:26:36.073Z,63.20
2023-03-11T15:29:13.438Z,62.38
2023-03-11T15:31:41.277Z,61.48
2023-03-11T15:34:17.214Z,60.81
2023-03-11T15:37:20.638Z,60.22
2023-03-11T15:39:51.444Z,60.15
2023-03-11T15:42:21.654Z,59.77
2023-03-11T15:45:16.008Z,59.66
2023-03-11T15:47:44.149Z,59.86
2023-03-11T15:50:40.088Z,59.98
2023-03-11T15:53:13.768Z,60.24
2023-03-11T15:55:40.630Z,60.28
2023-03-11T15:58:09.577Z,60.12
2023-03-11T16:00:37.602Z,59.93
2023-03-11T16:03:05.429Z,59.55
2023-03-11T16:05:32.306Z,57.42
2023-03-11T16:07:59.193Z,56.71
2023-03-11T16:10:28.998Z,58.58
2023-03-11T16:12:56.401Z,58.80
2023-03-11T16:15:29.658Z,61.26
2023-03-11T16:17:59.593Z,64.92
2023-03-11T16:20:29.738Z,67.42
2023-03-11T16:22:58.937Z,66.60
2023-03-11T16:25:46.864Z,65.56
2023-03-11T16:28:16.065Z,64.73
2023-03-11T16:30:43.994Z,63.29
2023-03-11T16:33:11.178Z,62.08
2023-03-11T16:35:38.401Z,61.42
2023-03-11T16:38:07.449Z,60.86
2023-03-11T16:40:35.189Z,60.40
2023-03-11T16:43:08.238Z,57.85
2023-03-11T16:45:35.676Z,54.53
2023-03-11T16:48:03.755Z,54.49
2023-03-11T16:50:30.788Z,55.49
2023-03-11T16:52:57.988Z,56.54
2023-03-11T16:55:27.423Z,58.02
2023-03-11T16:57:56.625Z,59.18
2023-03-11T17:00:27.283Z,60.40
2023-03-11T17:02:54.580Z,62.04
2023-03-11T17:05:22.278Z,66.08
2023-03-11T17:07:52.682Z,69.27
2023-03-11T17:10:19.527Z,67.80
2023-03-11T17:12:46.363Z,66.85
2023-03-11T17:15:13.426Z,65.40
2023-03-11T17:17:40.638Z,64.02
2023-03-11T17:20:09.252Z,63.21
2023-03-11T17:22:36.600Z,62.00
2023-03-11T17:25:04.470Z,60.65
2023-03-11T17:27:32.934Z,59.54
2023-03-11T17:30:04.866Z,56.04
2023-03-11T17:32:33.098Z,54.06
2023-03-11T17:35:00.463Z,54.82
2023-03-11T17:37:27.824Z,55.44
2023-03-11T17:39:55.137Z,56.35
2023-03-11T17:42:22.705Z,58.69
2023-03-11T17:44:55.109Z,59.84
2023-03-11T17:47:26.406Z,60.73
2023-03-11T17:49:54.161Z,62.57
2023-03-11T17:52:21.189Z,68.93
2023-03-11T17:54:48.056Z,69.60
2023-03-11T17:57:15.267Z,67.42
2023-03-11T17:59:42.222Z,65.63
2023-03-11T18:02:14.476Z,63.48
2023-03-11T18:04:43.698Z,61.89
2023-03-11T18:07:10.856Z,59.93
2023-03-11T18:09:38.565Z,56.66
2023-03-11T18:12:07.270Z,53.80
2023-03-11T18:14:34.238Z,53.82
2023-03-11T18:17:01.340Z,54.66
2023-03-11T18:19:28.375Z,55.69
2023-03-11T18:21:55.418Z,56.49
2023-03-11T18:24:22.542Z,57.48
2023-03-11T18:26:49.458Z,58.26
2023-03-11T18:29:16.777Z,58.80
2023-03-11T18:31:43.852Z,59.47
2023-03-11T18:34:14.089Z,60.13
2023-03-11T18:36:42.462Z,61.13
2023-03-11T18:39:14.125Z,61.59
2023-03-11T18:41:42.468Z,64.33
2023-03-11T18:44:09.935Z,70.45
2023-03-11T18:46:37.257Z,71.19
2023-03-11T18:49:04.852Z,69.66
2023-03-11T18:51:33.204Z,66.54
2023-03-11T18:54:01.113Z,63.62
2023-03-11T18:56:31.335Z,61.14
2023-03-11T18:58:59.694Z,59.58
2023-03-11T19:01:27.882Z,57.12
2023-03-11T19:03:57.448Z,55.10
2023-03-11T19:06:26.869Z,55.51
2023-03-11T19:08:54.469Z,56.33
2023-03-11T19:11:23.458Z,57.40
2023-03-11T19:13:51.272Z,58.12
2023-03-11T19:16:21.907Z,58.53
2023-03-11T19:18:48.954Z,59.27
2023-03-11T19:21:17.688Z,60.59
2023-03-11T19:23:45.683Z,60.98
2023-03-11T19:26:13.580Z,61.65
2023-03-11T19:28:40.514Z,64.77
2023-03-11T19:31:07.538Z,69.85
2023-03-11T19:33:34.911Z,70.47
2023-03-11T19:36:04.497Z,68.99
2023-03-11T19:38:32.147Z,67.47
2023-03-11T19:41:08.872Z,66.03
2023-03-11T19:43:36.577Z,64.01
2023-03-11T19:46:05.619Z,62.21
2023-03-11T19:48:32.792Z,60.40
2023-03-11T19:51:00.806Z,56.61
2023-03-11T19:53:28.684Z,53.63
2023-03-11T19:55:57.113Z,54.21
2023-03-11T19:58:29.929Z,55.27
2023-03-11T20:00:58.950Z,56.44
2023-03-11T20:03:27.343Z,57.45
2023-03-11T20:05:58.134Z,58.19
2023-03-11T20:08:26.153Z,58.90
2023-03-11T20:10:53.803Z,59.24
2023-03-11T20:13:22.479Z,59.97
2023-03-11T20:15:50.196Z,60.85
2023-03-11T20:18:18.410Z,61.48
2023-03-11T20:20:45.980Z,64.01
2023-03-11T20:23:24.962Z,71.04
2023-03-11T20:25:52.113Z,72.27
2023-03-11T20:28:19.495Z,70.11
2023-03-11T20:30:46.405Z,67.29
2023-03-11T20:33:13.588Z,64.99
2023-03-11T20:35:41.913Z,63.30
2023-03-11T20:38:10.542Z,61.66
2023-03-11T20:40:37.818Z,60.31
2023-03-11T20:43:04.948Z,57.42
2023-03-11T20:45:32.370Z,55.03
2023-03-11T20:47:59.701Z,55.58
2023-03-11T20:50:26.600Z,56.79
2023-03-11T20:52:53.502Z,57.55
2023-03-11T20:55:22.068Z,58.39
2023-03-11T20:57:48.946Z,59.35
2023-03-11T21:00:16.516Z,60.18
2023-03-11T21:02:43.928Z,60.83
2023-03-11T21:05:12.128Z,61.73
2023-03-11T21:07:40.782Z,64.83
2023-03-11T21:10:12.015Z,71.15
2023-03-11T21:12:38.889Z,71.23
2023-03-11T21:15:07.569Z,69.55
2023-03-11T21:17:35.687Z,67.78
2023-03-11T21:20:05.189Z,65.94
2023-03-11T21:22:33.125Z,64.53
2023-03-11T21:25:00.113Z,63.27
2023-03-11T21:27:27.255Z,62.30
2023-03-11T21:29:55.782Z,61.38
2023-03-11T21:32:24.176Z,60.81
2023-03-11T21:34:51.553Z,60.27
2023-03-11T21:37:18.751Z,58.25
2023-03-11T21:39:45.863Z,55.70
2023-03-11T21:42:13.575Z,55.85
2023-03-11T21:44:41.998Z,57.17
2023-03-11T21:47:10.098Z,58.04
2023-03-11T21:49:37.156Z,59.16
2023-03-11T21:52:04.715Z,60.00
2023-03-11T21:54:31.937Z,61.46
2023-03-11T21:56:58.880Z,63.62
2023-03-11T21:59:25.919Z,68.38
2023-03-11T22:01:53.449Z,70.08
2023-03-11T22:04:20.823Z,68.89
2023-03-11T22:06:48.200Z,67.64
2023-03-11T22:09:15.297Z,66.50
2023-03-11T22:11:42.558Z,65.30
2023-03-11T22:14:10.575Z,64.52
2023-03-11T22:16:38.081Z,63.89
2023-03-11T22:19:06.451Z,62.83
2023-03-11T22:21:33.587Z,62.09
2023-03-11T22:24:00.612Z,61.81
2023-03-11T22:26:27.734Z,60.92
2023-03-11T22:28:55.103Z,60.43
2023-03-11T22:31:22.160Z,60.47
2023-03-11T22:33:49.035Z,60.22
2023-03-11T22:36:15.986Z,59.95
2023-03-11T22:38:45.544Z,57.60
2023-03-11T22:41:14.502Z,55.26
2023-03-11T22:43:41.281Z,55.44
2023-03-11T22:46:08.275Z,56.33
2023-03-11T22:48:35.336Z,57.64
2023-03-11T22:51:02.481Z,58.48
2023-03-11T22:53:29.756Z,59.44
2023-03-11T22:55:56.626Z,60.37
2023-03-11T22:58:23.754Z,61.16
2023-03-11T23:00:51.262Z,61.74
2023-03-11T23:03:18.181Z,64.18
2023-03-11T23:05:46.842Z,69.68
2023-03-11T23:08:16.555Z,71.17
2023-03-11T23:10:45.993Z,70.17
2023-03-11T23:13:13.758Z,68.23
2023-03-11T23:15:43.189Z,66.26
2023-03-11T23:18:10.869Z,65.00
2023-03-11T23:20:40.231Z,63.82
2023-03-11T23:23:07.790Z,62.31
2023-03-11T23:25:35.857Z,61.48
2023-03-11T23:28:05.905Z,60.88
2023-03-11T23:30:33.310Z,60.33
2023-03-11T23:33:03.191Z,59.61
2023-03-11T23:35:31.676Z,57.73
2023-03-11T23:37:59.824Z,55.66
2023-03-11T23:40:27.873Z,55.93
2023-03-11T23:42:54.834Z,57.02
2023-03-11T23:45:21.855Z,57.52
2023-03-11T23:47:48.906Z,58.72
2023-03-11T23:50:16.313Z,59.80
2023-03-11T23:52:43.987Z,60.64
2023-03-11T23:55:11.585Z,61.22
2023-03-11T23:57:38.721Z,63.56
